KLUX

Laurens County Airport

Laurens, South Carolina, USA
METAR KLUX 212135Z AUTO 23007KT 10SM CLR 31/21 A2981 RMK AO2 LTG DSNT W
Observed Flight Rules
Jun-21 @ 21:35 UTC (29 minutes ago) Visual Flight Rules
Wind Visibility Clouds
230° at 7 knots 10 miles
  • Clear skies
Temperatures Readings
Current 31°C / 88°F
Dewpoint 21°C / 70°F
Humidity 55%
Altimeter 29.81" Hg
Pressure 1009 hPa
Elevation 213
METAR KLUX 212135Z AUTO 23007KT 10SM CLR 31/21 A2981 RMK AO2 LTG DSNT W
Observed Flight Rules
Jun-21 @ 21:35 UTC
(29 minutes ago)
VFR
Wind Visibility
230° at 7 knots 10 miles
Clouds
  • Clear skies
Temperature Dewpoint
31°C / 88°F 21°C / 70°F
Humidity Altimeter Pressure
55% 29.81" Hg 1009 hPa